createdAt,value
2023-02-13T00:02:59.817Z,3.84
2023-02-13T00:06:02.453Z,3.72
2023-02-13T00:09:06.467Z,3.80
2023-02-13T00:12:10.215Z,3.71
2023-02-13T00:15:13.247Z,3.87
2023-02-13T00:18:15.841Z,3.65
2023-02-13T00:21:18.254Z,3.77
2023-02-13T00:24:21.002Z,3.62
2023-02-13T00:27:23.338Z,3.64
2023-02-13T00:30:25.966Z,3.78
2023-02-13T00:33:28.283Z,3.75
2023-02-13T00:36:30.975Z,3.61
2023-02-13T00:39:33.415Z,3.56
2023-02-13T00:42:35.997Z,3.55
2023-02-13T00:45:38.335Z,3.59
2023-02-13T00:48:41.189Z,3.55
2023-02-13T00:51:43.624Z,3.54
2023-02-13T00:54:47.801Z,3.71
2023-02-13T00:57:50.482Z,3.53
2023-02-13T01:00:54.681Z,3.67
2023-02-13T01:03:57.175Z,3.55
2023-02-13T01:06:59.942Z,3.52
2023-02-13T01:10:02.262Z,3.58
2023-02-13T01:13:05.558Z,3.35
2023-02-13T01:16:08.637Z,3.56
2023-02-13T01:19:11.278Z,3.33
2023-02-13T01:22:13.583Z,3.54
2023-02-13T01:25:16.593Z,3.45
2023-02-13T01:28:19.105Z,3.26
2023-02-13T01:31:22.414Z,3.21
2023-02-13T01:34:25.665Z,3.40
2023-02-13T01:37:28.288Z,3.49
2023-02-13T01:40:31.876Z,3.33
2023-02-13T01:43:56.409Z,3.52
2023-02-13T01:46:58.744Z,3.51
2023-02-13T01:50:18.835Z,3.44
2023-02-13T01:53:33.223Z,3.47
2023-02-13T01:56:41.400Z,3.51
2023-02-13T01:59:58.449Z,3.21
2023-02-13T02:03:09.027Z,3.33
2023-02-13T02:06:21.626Z,3.24
2023-02-13T02:09:27.575Z,3.47
2023-02-13T02:12:50.009Z,3.45
2023-02-13T02:15:53.183Z,3.35
2023-02-13T02:18:56.118Z,3.18
2023-02-13T02:21:58.421Z,3.07
2023-02-13T02:25:10.441Z,3.27
2023-02-13T02:28:28.368Z,3.19
2023-02-13T02:31:52.260Z,3.10
2023-02-13T02:35:09.829Z,3.18
2023-02-13T02:38:39.981Z,2.99
2023-02-13T02:41:58.339Z,3.01
2023-02-13T02:45:16.714Z,2.95
2023-02-13T02:49:33.579Z,3.03
2023-02-13T02:52:39.892Z,2.95
2023-02-13T02:56:11.411Z,2.87
2023-02-13T02:59:36.734Z,2.88
2023-02-13T03:02:57.925Z,2.71
2023-02-13T03:06:14.084Z,2.74
2023-02-13T03:09:40.478Z,2.61
2023-02-13T03:13:11.550Z,2.77
2023-02-13T03:16:38.835Z,2.58
2023-02-13T03:20:19.991Z,2.63
2023-02-13T03:23:47.707Z,2.53
2023-02-13T03:26:50.787Z,2.64
2023-02-13T03:30:07.935Z,2.59
2023-02-13T03:33:10.460Z,2.48
2023-02-13T03:36:50.573Z,2.65
2023-02-13T03:40:09.566Z,2.61
2023-02-13T03:43:17.860Z,2.40
2023-02-13T03:46:21.407Z,2.41
2023-02-13T03:49:50.371Z,2.56
2023-02-13T03:52:52.919Z,2.38
2023-02-13T03:56:15.468Z,2.46
2023-02-13T03:59:27.085Z,2.35
2023-02-13T04:02:36.542Z,2.47
2023-02-13T04:05:44.978Z,2.45
2023-02-13T04:08:47.626Z,2.44
2023-02-13T04:11:54.453Z,2.30
2023-02-13T04:15:04.309Z,2.42
2023-02-13T04:18:32.089Z,2.38
2023-02-13T04:21:35.751Z,2.40
2023-02-13T04:24:38.244Z,2.22
2023-02-13T04:27:40.474Z,2.32
2023-02-13T04:30:43.316Z,2.29
2023-02-13T04:33:45.717Z,2.03
2023-02-13T04:36:48.441Z,2.19
2023-02-13T04:39:50.734Z,2.18
2023-02-13T04:42:53.382Z,2.08
2023-02-13T04:45:55.727Z,2.10
2023-02-13T04:48:58.471Z,2.01
2023-02-13T04:52:00.758Z,2.18
2023-02-13T04:55:04.053Z,2.30
2023-02-13T04:58:06.522Z,2.29
2023-02-13T05:01:17.044Z,2.22
2023-02-13T05:04:19.545Z,2.33
2023-02-13T05:07:22.131Z,2.13
2023-02-13T05:10:24.495Z,2.25
2023-02-13T05:13:27.129Z,2.26
2023-02-13T05:16:29.440Z,2.24
2023-02-13T05:19:32.566Z,2.05
2023-02-13T05:22:53.690Z,2.17
2023-02-13T05:25:56.472Z,2.22
2023-02-13T05:29:17.735Z,2.08
2023-02-13T05:32:20.505Z,2.21
2023-02-13T05:35:23.733Z,2.14
2023-02-13T05:38:26.406Z,2.21
2023-02-13T05:41:28.777Z,2.23
2023-02-13T05:44:33.496Z,1.97
2023-02-13T05:47:36.357Z,2.24
2023-02-13T05:50:39.196Z,2.28
2023-02-13T05:53:41.527Z,2.24
2023-02-13T05:56:44.308Z,2.03
2023-02-13T05:59:46.670Z,2.02
2023-02-13T06:02:49.284Z,2.21
2023-02-13T06:05:52.969Z,2.16
2023-02-13T06:08:55.297Z,2.16
2023-02-13T06:11:57.916Z,2.07
2023-02-13T06:15:00.258Z,2.06
2023-02-13T06:18:02.879Z,2.21
2023-02-13T06:21:06.042Z,2.00
2023-02-13T06:24:08.957Z,2.08
2023-02-13T06:27:11.453Z,2.07
2023-02-13T06:30:15.157Z,2.06
2023-02-13T06:33:17.488Z,2.14
2023-02-13T06:36:20.415Z,2.22
2023-02-13T06:39:22.745Z,2.04
2023-02-13T06:42:25.478Z,2.24
2023-02-13T06:45:27.765Z,2.27
2023-02-13T06:48:30.333Z,2.22
2023-02-13T06:51:32.758Z,2.32
2023-02-13T06:54:46.893Z,2.34
2023-02-13T06:57:50.204Z,2.47
2023-02-13T07:00:53.250Z,2.43
2023-02-13T07:03:55.634Z,2.62
2023-02-13T07:06:58.236Z,2.67
2023-02-13T07:10:00.998Z,2.78
2023-02-13T07:13:06.080Z,2.75
2023-02-13T07:19:11.701Z,2.54
2023-02-13T07:22:14.421Z,2.80
2023-02-13T07:25:17.392Z,2.82
2023-02-13T07:28:19.791Z,2.90
2023-02-13T07:31:22.555Z,2.97
2023-02-13T07:34:25.032Z,3.00
2023-02-13T07:37:29.422Z,2.95
2023-02-13T07:40:31.749Z,3.21
2023-02-13T07:43:34.556Z,3.19
2023-02-13T07:46:37.528Z,3.49
2023-02-13T07:49:40.284Z,3.70
2023-02-13T07:52:42.616Z,3.58
2023-02-13T07:55:45.210Z,3.49
2023-02-13T07:58:47.493Z,3.88
2023-02-13T08:01:50.238Z,4.06
2023-02-13T08:04:52.983Z,4.36
2023-02-13T08:07:55.406Z,4.76
2023-02-13T08:11:22.355Z,4.95
2023-02-13T08:14:26.945Z,5.63
2023-02-13T08:17:29.600Z,6.46
2023-02-13T08:20:31.968Z,6.71
2023-02-13T08:23:34.782Z,7.52
2023-02-13T08:26:37.291Z,7.33
2023-02-13T08:29:40.312Z,8.24
2023-02-13T08:32:53.758Z,8.68
2023-02-13T08:35:57.436Z,9.02
2023-02-13T08:39:15.769Z,9.58
2023-02-13T08:42:25.316Z,10.36
2023-02-13T08:45:28.507Z,10.54
2023-02-13T08:48:31.635Z,11.57
2023-02-13T08:51:45.085Z,12.07
2023-02-13T08:54:52.117Z,12.72
2023-02-13T08:57:54.575Z,13.10
2023-02-13T09:01:00.124Z,13.77
2023-02-13T09:04:02.659Z,14.07
2023-02-13T09:07:05.326Z,14.32
2023-02-13T09:10:08.651Z,14.31
2023-02-13T09:13:16.304Z,14.23
2023-02-13T09:16:31.488Z,14.90
2023-02-13T09:19:35.925Z,15.30
2023-02-13T09:22:38.337Z,15.79
2023-02-13T09:25:46.200Z,16.45
2023-02-13T09:28:53.452Z,17.33
2023-02-13T09:31:56.247Z,18.18
2023-02-13T09:34:58.745Z,18.54
2023-02-13T09:38:01.594Z,18.64
2023-02-13T09:41:10.162Z,19.61
2023-02-13T09:44:36.381Z,20.04
2023-02-13T09:47:44.131Z,20.19
2023-02-13T09:50:46.855Z,20.54
2023-02-13T09:53:56.996Z,20.05
2023-02-13T09:57:28.875Z,20.98
2023-02-13T10:00:57.469Z,21.91
2023-02-13T10:04:26.157Z,21.61
2023-02-13T10:07:44.178Z,21.74
2023-02-13T10:11:04.199Z,21.71
2023-02-13T10:14:36.340Z,21.71
2023-02-13T10:17:45.205Z,21.29
2023-02-13T10:21:13.837Z,21.00
2023-02-13T10:24:29.867Z,19.92
2023-02-13T10:27:37.460Z,18.71
2023-02-13T10:30:57.059Z,18.70
2023-02-13T10:34:06.704Z,18.03
2023-02-13T10:37:19.499Z,17.44
2023-02-13T10:40:28.758Z,17.26
2023-02-13T10:43:40.716Z,16.72
2023-02-13T10:47:13.397Z,16.36
2023-02-13T10:50:15.981Z,16.02
2023-02-13T10:53:28.719Z,16.25
2023-02-13T10:56:57.016Z,15.82
2023-02-13T11:00:36.607Z,15.57
2023-02-13T11:03:39.657Z,15.71
2023-02-13T11:06:47.105Z,15.73
2023-02-13T11:09:53.105Z,15.80
2023-02-13T11:12:55.660Z,15.35
2023-02-13T11:16:05.203Z,15.53
2023-02-13T11:19:23.352Z,15.31
2023-02-13T11:22:31.721Z,14.71
2023-02-13T11:25:34.253Z,13.89
2023-02-13T11:28:46.668Z,14.62
2023-02-13T11:32:21.198Z,14.13
2023-02-13T11:35:33.609Z,13.87
2023-02-13T11:38:36.628Z,13.85
2023-02-13T11:41:49.973Z,13.70
2023-02-13T11:44:58.648Z,13.54
2023-02-13T11:48:01.366Z,13.89
2023-02-13T11:51:04.515Z,13.97
2023-02-13T11:54:37.569Z,14.12
2023-02-13T11:57:39.940Z,14.21
2023-02-13T12:00:43.487Z,14.43
2023-02-13T12:03:57.631Z,14.43
2023-02-13T12:07:12.286Z,14.53
2023-02-13T12:10:23.780Z,14.59
2023-02-13T12:13:39.073Z,14.52
2023-02-13T12:16:50.643Z,13.85
2023-02-13T12:19:55.642Z,13.99
2023-02-13T12:23:24.369Z,14.03
2023-02-13T12:26:38.584Z,13.96
2023-02-13T12:29:53.468Z,13.76
2023-02-13T12:33:20.147Z,13.49
2023-02-13T12:37:01.162Z,13.59
2023-02-13T12:40:20.969Z,13.99
2023-02-13T12:43:45.147Z,14.04
2023-02-13T12:47:15.882Z,14.25
2023-02-13T12:51:00.579Z,14.22
2023-02-13T12:54:24.582Z,14.04
2023-02-13T12:57:47.987Z,14.19
2023-02-13T13:01:03.559Z,13.30
2023-02-13T13:04:06.133Z,13.19
2023-02-13T13:07:56.559Z,13.51
2023-02-13T13:11:28.048Z,14.28
2023-02-13T13:14:55.097Z,15.05
2023-02-13T13:18:04.313Z,15.80
2023-02-13T13:21:28.318Z,16.62
2023-02-13T13:24:34.062Z,17.18
2023-02-13T13:27:44.350Z,17.63
2023-02-13T13:30:48.326Z,18.25
2023-02-13T13:33:50.687Z,18.48
2023-02-13T13:37:07.961Z,17.32
2023-02-13T13:40:25.236Z,16.58
2023-02-13T13:44:34.864Z,16.08
2023-02-13T13:47:50.732Z,15.15
2023-02-13T13:50:54.195Z,14.41
2023-02-13T13:54:17.972Z,14.03
2023-02-13T13:57:25.763Z,13.74
2023-02-13T14:00:30.856Z,13.35
2023-02-13T14:03:38.243Z,13.04
2023-02-13T14:06:43.583Z,12.81
2023-02-13T14:09:49.296Z,12.50
2023-02-13T14:12:57.440Z,12.16
2023-02-13T14:16:13.598Z,12.02
2023-02-13T14:19:46.523Z,11.78
2023-02-13T14:22:49.246Z,11.32
2023-02-13T14:26:11.266Z,11.11
2023-02-13T14:29:33.532Z,11.29
2023-02-13T14:32:39.317Z,11.15
2023-02-13T14:35:42.193Z,10.85
2023-02-13T14:38:44.549Z,10.76
2023-02-13T14:41:56.131Z,10.59
2023-02-13T14:45:02.488Z,10.48
2023-02-13T14:48:11.740Z,10.17
2023-02-13T14:51:38.833Z,10.06
2023-02-13T14:54:55.849Z,10.04
2023-02-13T14:58:06.502Z,9.87
2023-02-13T15:01:35.699Z,9.69
2023-02-13T15:04:48.694Z,9.65
2023-02-13T15:07:59.193Z,9.47
2023-02-13T15:11:01.775Z,9.30
2023-02-13T15:14:17.467Z,9.41
2023-02-13T15:17:26.544Z,9.36
2023-02-13T15:20:34.078Z,9.33
2023-02-13T15:23:36.499Z,9.29
2023-02-13T15:26:39.454Z,9.24
2023-02-13T15:29:58.860Z,9.18
2023-02-13T15:33:07.042Z,9.18
2023-02-13T15:36:24.422Z,8.97
2023-02-13T15:39:33.162Z,9.03
2023-02-13T15:42:39.475Z,8.95
2023-02-13T15:45:44.098Z,8.59
2023-02-13T15:48:47.814Z,8.66
2023-02-13T15:51:55.261Z,8.76
2023-02-13T15:55:01.379Z,8.70
2023-02-13T15:58:05.769Z,8.46
2023-02-13T16:01:11.964Z,8.58
2023-02-13T16:04:17.956Z,8.36
2023-02-13T16:07:20.610Z,8.46
2023-02-13T16:10:31.559Z,8.29
2023-02-13T16:13:34.591Z,8.35
2023-02-13T16:17:12.839Z,8.29
2023-02-13T16:20:22.576Z,8.29
2023-02-13T16:23:25.312Z,8.33
2023-02-13T16:26:27.938Z,8.30
2023-02-13T16:29:30.897Z,8.13
2023-02-13T16:32:38.202Z,8.08
2023-02-13T16:36:09.987Z,8.06
2023-02-13T16:39:20.093Z,8.07
2023-02-13T16:42:22.834Z,8.09
2023-02-13T16:45:25.370Z,7.86
2023-02-13T16:48:28.289Z,7.96
2023-02-13T16:51:30.601Z,7.93
2023-02-13T16:54:38.201Z,7.87
2023-02-13T16:57:41.985Z,7.84
2023-02-13T17:00:49.930Z,7.67
2023-02-13T17:03:54.049Z,7.71
2023-02-13T17:06:56.856Z,7.51
2023-02-13T17:10:17.432Z,7.67
2023-02-13T17:13:21.731Z,7.52
2023-02-13T17:16:24.427Z,7.70
2023-02-13T17:19:30.067Z,7.70
2023-02-13T17:22:40.761Z,7.71
2023-02-13T17:25:50.349Z,7.56
2023-02-13T17:28:54.177Z,7.68
2023-02-13T17:31:59.843Z,7.71
2023-02-13T17:35:06.626Z,7.73
2023-02-13T17:38:11.169Z,7.73
2023-02-13T17:41:16.029Z,7.73
2023-02-13T17:44:20.246Z,7.72
2023-02-13T17:47:24.502Z,7.71
2023-02-13T17:50:29.422Z,7.73
2023-02-13T17:53:32.091Z,7.53
2023-02-13T17:56:34.693Z,7.60
2023-02-13T17:59:37.232Z,7.57
2023-02-13T18:02:42.548Z,7.63
2023-02-13T18:05:48.542Z,7.50
2023-02-13T18:08:51.256Z,7.58
2023-02-13T18:12:04.889Z,7.55
2023-02-13T18:15:08.333Z,7.32
2023-02-13T18:18:12.425Z,7.31
2023-02-13T18:21:14.723Z,7.27
2023-02-13T18:24:17.447Z,7.40
2023-02-13T18:27:19.928Z,7.37
2023-02-13T18:30:23.058Z,7.35
2023-02-13T18:33:25.563Z,7.29
2023-02-13T18:36:28.250Z,7.16
2023-02-13T18:39:32.043Z,7.27
2023-02-13T18:42:36.087Z,7.20
2023-02-13T18:45:38.798Z,7.17
2023-02-13T18:48:41.500Z,7.00
2023-02-13T18:51:44.523Z,7.11
2023-02-13T18:54:47.152Z,6.96
2023-02-13T18:57:52.883Z,6.93
2023-02-13T19:00:57.289Z,7.03
2023-02-13T19:04:02.387Z,6.90
2023-02-13T19:07:05.138Z,7.00
2023-02-13T19:10:07.953Z,6.81
2023-02-13T19:13:10.646Z,6.95
2023-02-13T19:16:17.836Z,6.90
2023-02-13T19:19:20.451Z,6.74
2023-02-13T19:22:22.860Z,6.87
2023-02-13T19:25:25.496Z,6.69
2023-02-13T19:28:27.800Z,6.67
2023-02-13T19:31:32.071Z,6.84
2023-02-13T19:34:34.700Z,6.76
2023-02-13T19:37:43.872Z,6.75
2023-02-13T19:40:46.742Z,6.74
2023-02-13T19:43:53.721Z,6.74
2023-02-13T19:46:57.028Z,6.65
2023-02-13T19:49:59.674Z,6.76
2023-02-13T19:53:04.264Z,6.64
2023-02-13T19:56:08.289Z,6.53
2023-02-13T19:59:13.299Z,6.60
2023-02-13T20:02:17.238Z,6.70
2023-02-13T20:05:19.999Z,6.49
2023-02-13T20:08:22.314Z,6.67
2023-02-13T20:11:25.227Z,6.49
2023-02-13T20:14:27.532Z,6.41
2023-02-13T20:17:30.439Z,6.48
2023-02-13T20:20:32.786Z,6.46
2023-02-13T20:23:35.664Z,6.46
2023-02-13T20:26:39.592Z,6.60
2023-02-13T20:29:42.765Z,6.59
2023-02-13T20:32:45.122Z,6.57
2023-02-13T20:35:47.794Z,6.54
2023-02-13T20:38:53.285Z,6.35
2023-02-13T20:41:59.000Z,6.48
2023-02-13T20:45:01.753Z,6.43
2023-02-13T20:48:04.856Z,6.24
2023-02-13T20:51:09.723Z,6.32
2023-02-13T20:54:12.478Z,6.28
2023-02-13T20:57:15.760Z,6.10
2023-02-13T21:00:18.623Z,6.24
2023-02-13T21:03:20.923Z,6.19
2023-02-13T21:06:32.007Z,6.06
2023-02-13T21:09:34.570Z,6.19
2023-02-13T21:12:37.190Z,6.04
2023-02-13T21:15:39.664Z,6.03
2023-02-13T21:18:43.476Z,6.13
2023-02-13T21:21:45.952Z,6.06
2023-02-13T21:24:50.141Z,5.91
2023-02-13T21:27:52.506Z,6.05
2023-02-13T21:30:55.146Z,5.91
2023-02-13T21:33:59.728Z,5.90
2023-02-13T21:37:02.615Z,5.98
2023-02-13T21:40:05.878Z,5.85
2023-02-13T21:43:08.711Z,5.93
2023-02-13T21:46:20.244Z,5.87
2023-02-13T21:49:25.763Z,5.92
2023-02-13T21:52:28.162Z,5.92
2023-02-13T21:55:32.545Z,5.80
2023-02-13T21:58:35.810Z,5.89
2023-02-13T22:01:38.345Z,5.96
2023-02-13T22:04:42.209Z,5.78
2023-02-13T22:08:03.128Z,5.90
2023-02-13T22:11:05.827Z,5.92
2023-02-13T22:14:12.979Z,5.87
2023-02-13T22:17:15.816Z,5.68
2023-02-13T22:20:18.883Z,5.68
2023-02-13T22:23:21.507Z,5.67
2023-02-13T22:26:25.691Z,5.60
2023-02-13T22:29:28.365Z,5.55
2023-02-13T22:32:31.608Z,5.55
2023-02-13T22:35:40.796Z,5.72
2023-02-13T22:38:43.159Z,5.66
2023-02-13T22:41:48.586Z,5.49
2023-02-13T22:44:50.949Z,5.52
2023-02-13T22:47:53.934Z,5.56
2023-02-13T22:50:56.346Z,5.59
2023-02-13T22:53:59.621Z,5.38
2023-02-13T22:57:01.986Z,5.40
2023-02-13T23:00:11.450Z,5.45
2023-02-13T23:03:15.199Z,5.52
2023-02-13T23:06:18.342Z,5.50
2023-02-13T23:09:20.684Z,5.44
2023-02-13T23:12:45.512Z,5.35
2023-02-13T23:15:50.276Z,5.37
2023-02-13T23:18:55.043Z,5.41
2023-02-13T23:21:58.588Z,5.23
2023-02-13T23:25:02.775Z,5.23
2023-02-13T23:28:06.062Z,5.16
2023-02-13T23:31:09.341Z,5.34
2023-02-13T23:34:11.882Z,5.29
2023-02-13T23:37:14.651Z,5.32
2023-02-13T23:40:17.596Z,5.20
2023-02-13T23:43:20.264Z,5.21
2023-02-13T23:46:22.775Z,5.28
2023-02-13T23:49:25.565Z,5.15
2023-02-13T23:52:28.449Z,5.20
2023-02-13T23:55:31.055Z,5.21
2023-02-13T23:58:33.626Z,5.05
